Time;durP1;ratioP1;P1;durP2;ratioP2;P2;SDS_P1;SDS_P2;PMS_P1;PMS_P2;Temp;Humidity;BMP_temperature;BMP_pressure;BME280_temperature;BME280_humidity;BME280_pressure;Samples;Min_cycle;Max_cycle;Signal;HPM_P1;HPM_P2
2022/10/12 00:02:05;;;;;;;;;;;;;;;11.83;74.74;101134.02;1492719;87;20288;-80
2022/10/12 00:04:32;;;;;;;;;;;;;;;11.80;74.78;101135.63;1482542;87;20325;-80
2022/10/12 00:06:58;;;;;;;;;;;;;;;11.72;73.19;101139.78;1479465;88;20347;-79
2022/10/12 00:09:25;;;;;;;;;;;;;;;11.77;73.91;101143.37;1463807;89;20425;-80
2022/10/12 00:11:52;;;;;;;;;;;;;;;11.73;73.94;101137.48;1466392;88;20428;-81
2022/10/12 00:14:19;;;;;;;;;;;;;;;11.71;73.43;101139.45;1464584;87;20492;-80
2022/10/12 00:16:46;;;;;;;;;;;;;;;11.69;73.57;101141.39;1464064;87;20402;-80
2022/10/12 00:19:13;;;;;;;;;;;;;;;11.67;73.46;101139.36;1485498;87;20384;-81
2022/10/12 00:21:40;;;;;;;;;;;;;;;11.65;73.60;101137.81;1500170;86;20964;-81
2022/10/12 00:24:08;;;;;;;;;;;;;;;11.62;73.64;101136.77;1501943;86;20406;-81
2022/10/12 00:26:35;;;;;;;;;;;;;;;11.58;73.61;101141.51;1509288;86;20302;-80
2022/10/12 00:29:03;;;;;;;;;;;;;;;11.52;73.60;101138.08;1512167;86;20273;-80
2022/10/12 00:31:30;;;;;;;;;;;;;;;11.49;73.74;101142.33;1503698;86;20802;-80
2022/10/12 00:34:00;;;;;;;;;;;;;;;11.47;73.49;101138.97;1515489;86;20428;-80
2022/10/12 00:36:31;;;;;;;;;;;;;;;11.47;73.90;101140.30;1514823;86;20279;-80
2022/10/12 00:38:58;;;;;;;;;;;;;;;11.47;73.44;101140.30;1506085;86;20319;-79
2022/10/12 00:41:28;;;;;;;;;;;;;;;11.41;73.51;101144.81;1494981;85;20330;-79
2022/10/12 00:43:56;;;;;;;;;;;;;;;11.38;73.44;101136.64;1496194;87;21126;-79
2022/10/12 00:46:42;;;;;;;;;;;;;;;11.37;73.81;101128.36;1489928;85;20389;-79
2022/10/12 00:49:19;;;;;;;;;;;;;;;11.32;74.21;101128.41;1495937;87;20434;-80
2022/10/12 00:51:52;;;;;;;;;;;;;;;11.34;74.56;101130.45;1513274;85;20904;-80
2022/10/12 00:54:23;;;;;;;;;;;;;;;11.26;74.67;101133.27;1510406;85;20325;-79
2022/10/12 00:56:51;;;;;;;;;;;;;;;11.24;74.92;101128.58;1495419;86;20289;-80
2022/10/12 00:59:21;;;;;;;;;;;;;;;11.26;75.12;101130.62;1500793;85;20654;-80
2022/10/12 01:01:48;;;;;;;;;;;;;;;11.22;75.44;101133.20;1494558;85;20297;-80
2022/10/12 01:04:15;;;;;;;;;;;;;;;11.23;75.58;101132.22;1502328;87;20323;-79
2022/10/12 01:06:42;;;;;;;;;;;;;;;11.23;75.69;101134.03;1489083;87;20304;-79
2022/10/12 01:09:09;;;;;;;;;;;;;;;11.19;75.92;101141.42;1515209;85;20808;-80
2022/10/12 01:11:36;;;;;;;;;;;;;;;11.19;76.19;101137.45;1494796;85;20337;-80
2022/10/12 01:14:03;;;;;;;;;;;;;;;11.17;76.38;101139.38;1486231;87;20356;-80
2022/10/12 01:16:39;;;;;;;;;;;;;;;11.16;76.54;101136.36;1486309;87;20263;-80
2022/10/12 01:19:31;;;;;;;;;;;;;;;11.14;76.84;101140.14;1519726;85;20301;-79
2022/10/12 01:22:03;;;;;;;;;;;;;;;11.12;76.87;101129.66;1529357;85;20868;-80
2022/10/12 01:24:51;;;;;;;;;;;;;;;11.12;77.00;101132.31;1492629;85;20405;-80
2022/10/12 01:27:37;;;;;;;;;;;;;;;11.05;77.16;101133.34;1480901;85;20414;-80
2022/10/12 01:30:08;;;;;;;;;;;;;;;11.07;77.11;101138.49;1508708;85;20730;-80
2022/10/12 01:32:44;;;;;;;;;;;;;;;11.06;77.30;101136.83;1495314;87;20293;-80
2022/10/12 01:35:36;;;;;;;;;;;;;;;11.01;77.30;101133.23;1489976;87;20449;-79
2022/10/12 01:38:40;;;;;;;;;;;;;;;11.03;77.40;101138.42;1497080;87;20303;-79
2022/10/12 01:41:23;;;;;;;;;;;;;;;11.01;77.18;101143.00;1501299;85;20337;-78
2022/10/12 01:43:50;;;;;;;;;;;;;;;10.99;77.18;101140.97;1493451;87;20423;-78
2022/10/12 01:46:21;;;;;;;;;;;;;;;11.00;77.20;101140.84;1497290;85;20925;-80
2022/10/12 01:48:50;;;;;;;;;;;;;;;11.01;77.16;101141.67;1507910;85;20919;-80
2022/10/12 01:51:20;;;;;;;;;;;;;;;11.01;77.21;101137.70;1497835;87;20478;-80
2022/10/12 01:54:06;;;;;;;;;;;;;;;11.04;76.88;101137.44;1492703;85;20984;-80
2022/10/12 01:56:39;;;;;;;;;;;;;;;11.02;77.02;101142.88;1488902;85;20419;-80
2022/10/12 01:59:25;;;;;;;;;;;;;;;11.02;76.93;101148.18;1494387;87;20900;-80
2022/10/12 02:01:56;;;;;;;;;;;;;;;11.04;77.04;101146.70;1502939;85;20523;-80
2022/10/12 02:04:43;;;;;;;;;;;;;;;11.07;77.07;101146.44;1499793;87;20393;-80
2022/10/12 02:07:13;;;;;;;;;;;;;;;11.08;76.99;101148.14;1503755;87;20296;-80
2022/10/12 02:09:41;;;;;;;;;;;;;;;11.11;76.75;101143.06;1509372;85;20485;-79
2022/10/12 02:12:14;;;;;;;;;;;;;;;11.13;76.78;101145.91;1501089;85;20365;-79
2022/10/12 02:14:47;;;;;;;;;;;;;;;11.16;76.93;101150.09;1495461;87;20275;-80
2022/10/12 02:17:17;;;;;;;;;;;;;;;11.18;76.76;101149.00;1489735;87;20274;-80
2022/10/12 02:19:50;;;;;;;;;;;;;;;11.21;76.74;101150.55;1516896;86;20308;-80
2022/10/12 02:22:17;;;;;;;;;;;;;;;11.23;76.75;101150.77;1508969;86;20301;-79
2022/10/12 02:24:47;;;;;;;;;;;;;;;11.26;76.36;101153.64;1509727;86;20287;-80
2022/10/12 02:27:15;;;;;;;;;;;;;;;11.22;76.19;101145.13;1520985;86;20324;-80
2022/10/12 02:29:44;;;;;;;;;;;;;;;11.29;76.04;101144.09;1515614;86;20264;-79
2022/10/12 02:32:18;;;;;;;;;;;;;;;11.29;76.03;101144.92;1481469;86;21097;-80
2022/10/12 02:35:09;;;;;;;;;;;;;;;11.32;75.99;101144.31;1484910;87;20737;-80
2022/10/12 02:37:41;;;;;;;;;;;;;;;11.30;75.94;101140.45;1485515;87;20275;-79
2022/10/12 02:40:24;;;;;;;;;;;;;;;11.29;76.02;101146.25;1492606;87;20296;-81
2022/10/12 02:42:54;;;;;;;;;;;;;;;11.30;75.80;101141.28;1488672;87;20364;-80
2022/10/12 02:45:23;;;;;;;;;;;;;;;11.28;75.65;101147.73;1491241;87;20469;-80
2022/10/12 02:47:52;;;;;;;;;;;;;;;11.29;75.70;101144.09;1495670;87;20431;-80
2022/10/12 02:50:20;;;;;;;;;;;;;;;11.24;75.82;101146.30;1494202;87;20311;-80
2022/10/12 02:52:49;;;;;;;;;;;;;;;11.25;75.63;101146.17;1502155;87;20311;-81
2022/10/12 02:55:16;;;;;;;;;;;;;;;11.25;75.93;101151.48;1490698;87;20274;-80
2022/10/12 02:57:43;;;;;;;;;;;;;;;11.22;75.43;101153.53;1500463;87;20414;-80
2022/10/12 03:00:11;;;;;;;;;;;;;;;11.20;75.60;101153.69;1497162;87;20494;-81
2022/10/12 03:02:37;;;;;;;;;;;;;;;11.21;75.27;101151.87;1500496;87;20847;-80
2022/10/12 03:05:05;;;;;;;;;;;;;;;11.21;75.58;101156.67;1499939;87;20401;-80
2022/10/12 03:07:32;;;;;;;;;;;;;;;11.18;75.60;101156.95;1489755;87;20401;-81
2022/10/12 03:09:59;;;;;;;;;;;;;;;11.21;75.40;101149.22;1504226;87;20312;-81
2022/10/12 03:12:25;;;;;;;;;;;;;;;11.18;75.11;101143.70;1499074;87;20311;-79
2022/10/12 03:14:52;;;;;;;;;;;;;;;11.18;74.96;101150.32;1490124;85;20289;-78
2022/10/12 03:17:19;;;;;;;;;;;;;;;11.22;75.08;101150.42;1515991;85;20236;-80
2022/10/12 03:19:47;;;;;;;;;;;;;;;11.23;75.13;101150.77;1503789;85;20252;-79
2022/10/12 03:22:14;;;;;;;;;;;;;;;11.23;74.97;101152.58;1495450;87;20345;-79
2022/10/12 03:24:41;;;;;;;;;;;;;;;11.22;74.85;101153.53;1514992;85;20294;-79
2022/10/12 03:27:08;;;;;;;;;;;;;;;11.23;74.29;101152.09;1493912;85;20766;-78
2022/10/12 03:29:35;;;;;;;;;;;;;;;11.26;74.46;101153.14;1521217;85;20266;-79
2022/10/12 03:32:02;;;;;;;;;;;;;;;11.25;74.13;101155.95;1513738;85;20282;-80
2022/10/12 03:34:28;;;;;;;;;;;;;;;11.27;73.69;101153.98;1491031;87;20352;-79
2022/10/12 03:36:55;;;;;;;;;;;;;;;11.32;73.50;101157.07;1489043;87;20293;-78
2022/10/12 03:39:22;;;;;;;;;;;;;;;11.34;73.26;101152.97;1501788;85;20407;-79
2022/10/12 03:41:49;;;;;;;;;;;;;;;11.35;73.16;101155.97;1496953;87;20423;-79
2022/10/12 03:44:15;;;;;;;;;;;;;;;11.38;72.90;101153.05;1496564;87;20408;-79
2022/10/12 03:46:42;;;;;;;;;;;;;;;11.37;72.42;101156.19;1501993;85;21287;-79
2022/10/12 03:49:09;;;;;;;;;;;;;;;11.42;72.55;101157.09;1496758;87;20337;-79
2022/10/12 03:51:36;;;;;;;;;;;;;;;11.39;71.87;101156.03;1488575;87;20291;-79
2022/10/12 03:54:03;;;;;;;;;;;;;;;11.39;71.95;101160.01;1494587;87;20338;-79
2022/10/12 03:56:30;;;;;;;;;;;;;;;11.37;71.71;101159.33;1497115;87;20323;-78
2022/10/12 03:58:56;;;;;;;;;;;;;;;11.46;72.35;101162.48;1497763;87;20896;-79
2022/10/12 04:01:24;;;;;;;;;;;;;;;11.45;72.07;101155.03;1501603;85;20230;-77
2022/10/12 04:03:51;;;;;;;;;;;;;;;11.47;71.70;101157.52;1515653;85;20271;-78
2022/10/12 04:06:18;;;;;;;;;;;;;;;11.44;71.29;101155.98;1514501;85;20242;-78
2022/10/12 04:08:45;;;;;;;;;;;;;;;11.45;71.47;101156.81;1499592;85;20322;-77
2022/10/12 04:11:11;;;;;;;;;;;;;;;11.49;71.68;101155.59;1495422;87;20777;-78
2022/10/12 04:13:38;;;;;;;;;;;;;;;11.45;71.54;101153.70;1498751;85;20292;-78
2022/10/12 04:16:06;;;;;;;;;;;;;;;11.49;71.95;101152.44;1491382;85;20403;-79
2022/10/12 04:18:33;;;;;;;;;;;;;;;11.45;71.47;101152.37;1496481;85;20736;-78
2022/10/12 04:21:01;;;;;;;;;;;;;;;11.44;71.24;101150.68;1495139;87;20297;-77
2022/10/12 04:23:28;;;;;;;;;;;;;;;11.46;70.89;101158.51;1487248;87;20752;-78
2022/10/12 04:25:55;;;;;;;;;;;;;;;11.50;71.10;101155.92;1502473;85;20324;-78
2022/10/12 04:28:21;;;;;;;;;;;;;;;11.49;70.68;101158.23;1512480;85;20377;-79
2022/10/12 04:30:48;;;;;;;;;;;;;;;11.47;70.87;101154.88;1497535;85;20290;-79
2022/10/12 04:33:15;;;;;;;;;;;;;;;11.49;71.11;101160.39;1502704;85;20375;-79
2022/10/12 04:35:42;;;;;;;;;;;;;;;11.44;70.81;101161.28;1508354;85;20259;-79
2022/10/12 04:38:09;;;;;;;;;;;;;;;11.45;70.75;101164.77;1498422;87;20224;-79
2022/10/12 04:40:36;;;;;;;;;;;;;;;11.44;70.93;101165.75;1493699;87;20230;-79
2022/10/12 04:43:02;;;;;;;;;;;;;;;11.47;71.18;101161.01;1494584;87;20350;-81
2022/10/12 04:45:29;;;;;;;;;;;;;;;11.43;70.77;101170.22;1516592;85;20457;-80
2022/10/12 04:47:56;;;;;;;;;;;;;;;11.42;71.12;101168.55;1504021;85;20383;-81
2022/10/12 04:50:23;;;;;;;;;;;;;;;11.38;70.78;101174.24;1529359;85;20853;-80
2022/10/12 04:52:49;;;;;;;;;;;;;;;11.41;71.37;101170.00;1500523;85;20371;-81
2022/10/12 04:55:16;;;;;;;;;;;;;;;11.39;71.52;101174.59;1491299;87;20537;-80
2022/10/12 04:57:43;;;;;;;;;;;;;;;11.43;71.49;101177.34;1492678;85;20354;-82
2022/10/12 05:00:11;;;;;;;;;;;;;;;11.40;71.42;101181.09;1489033;85;20319;-87
2022/10/12 05:02:38;;;;;;;;;;;;;;;11.38;71.44;101179.55;1494805;85;20319;-91
2022/10/12 05:05:05;;;;;;;;;;;;;;;11.37;71.63;101183.18;1498108;86;20289;-85
2022/10/12 05:07:32;;;;;;;;;;;;;;;11.39;71.92;101183.38;1496886;85;20416;-89
2022/10/12 05:09:59;;;;;;;;;;;;;;;11.42;71.53;101194.19;1490496;85;20870;-89
2022/10/12 05:12:26;;;;;;;;;;;;;;;11.41;71.45;101185.41;1496203;85;20403;-87
2022/10/12 05:14:52;;;;;;;;;;;;;;;11.47;71.82;101191.98;1494960;85;20333;-90
2022/10/12 05:17:19;;;;;;;;;;;;;;;11.47;71.74;101196.80;1498434;85;20794;-90
2022/10/12 05:19:46;;;;;;;;;;;;;;;11.50;71.58;101197.84;1498697;86;20348;-88
2022/10/12 05:22:14;;;;;;;;;;;;;;;11.53;71.84;101195.42;1491714;85;20345;-88
2022/10/12 05:24:41;;;;;;;;;;;;;;;11.53;71.68;101192.77;1495931;85;20338;-90
2022/10/12 05:27:08;;;;;;;;;;;;;;;11.56;71.29;101197.80;1496693;87;20297;-89
2022/10/12 05:29:34;;;;;;;;;;;;;;;11.56;71.14;101191.17;1489231;87;20282;-90
2022/10/12 05:32:01;;;;;;;;;;;;;;;11.57;71.14;101203.47;1497188;87;20437;-87
2022/10/12 05:34:28;;;;;;;;;;;;;;;11.60;71.21;101202.37;1506849;85;20244;-87
2022/10/12 05:36:55;;;;;;;;;;;;;;;11.66;71.47;101198.67;1494412;87;20275;-89
2022/10/12 05:39:21;;;;;;;;;;;;;;;11.72;71.55;101204.76;1485382;87;20312;-89
2022/10/12 05:41:50;;;;;;;;;;;;;;;11.77;71.57;101208.80;1491932;87;20375;-88
2022/10/12 05:44:17;;;;;;;;;;;;;;;11.76;70.93;101209.30;1495390;87;20281;-90
2022/10/12 05:46:43;;;;;;;;;;;;;;;11.71;71.38;101208.39;1499879;87;20253;-91
2022/10/12 05:49:10;;;;;;;;;;;;;;;11.72;70.90;101208.73;1495277;87;20343;-88
2022/10/12 05:51:38;;;;;;;;;;;;;;;11.70;70.91;101206.70;1498891;87;20274;-90
2022/10/12 05:54:05;;;;;;;;;;;;;;;11.72;71.38;101209.23;1491771;87;20559;-90
2022/10/12 05:56:31;;;;;;;;;;;;;;;11.70;70.63;101210.67;1491054;87;20281;-91
2022/10/12 05:58:58;;;;;;;;;;;;;;;11.73;70.66;101211.73;1500657;87;20274;-91
2022/10/12 06:01:25;;;;;;;;;;;;;;;11.77;70.56;101218.08;1498452;87;20304;-88
2022/10/12 06:03:53;;;;;;;;;;;;;;;11.83;70.46;101218.89;1500151;87;20281;-91
2022/10/12 06:06:21;;;;;;;;;;;;;;;11.88;70.34;101223.31;1493784;87;20230;-88
2022/10/12 06:08:48;;;;;;;;;;;;;;;11.94;70.20;101228.09;1473026;87;20422;-91
2022/10/12 06:11:14;;;;;;;;;;;;;;;11.94;70.08;101232.07;1491689;87;20231;-91
2022/10/12 06:13:41;;;;;;;;;;;;;;;12.00;70.00;101228.87;1489957;87;20282;-88
2022/10/12 06:16:08;;;;;;;;;;;;;;;12.00;70.08;101231.52;1500854;87;20296;-89
2022/10/12 06:18:35;;;;;;;;;;;;;;;12.01;69.61;101239.81;1500251;87;20252;-89
2022/10/12 06:21:02;;;;;;;;;;;;;;;12.10;70.31;101244.79;1496292;87;20348;-89
2022/10/12 06:23:29;;;;;;;;;;;;;;;12.15;70.15;101247.88;1495417;87;20357;-84
2022/10/12 06:25:56;;;;;;;;;;;;;;;12.18;70.11;101245.77;1494295;87;20282;-90
2022/10/12 06:28:23;;;;;;;;;;;;;;;12.22;69.95;101241.52;1491473;87;20442;-90
2022/10/12 06:30:54;;;;;;;;;;;;;;;12.26;69.53;101249.58;1495426;87;20297;-89
2022/10/12 06:33:22;;;;;;;;;;;;;;;12.35;69.92;101247.41;1499684;87;20921;-91
2022/10/12 06:35:49;;;;;;;;;;;;;;;12.31;67.72;101252.62;1494411;87;20818;-91
2022/10/12 06:38:16;;;;;;;;;;;;;;;12.32;68.01;101253.00;1493574;87;20238;-90
2022/10/12 06:40:49;;;;;;;;;;;;;;;12.26;67.57;101249.58;1497167;87;20363;-90
2022/10/12 06:43:15;;;;;;;;;;;;;;;12.33;68.28;101248.02;1493616;87;20267;-90
2022/10/12 06:45:42;;;;;;;;;;;;;;;12.23;67.28;101253.34;1499755;87;20348;-88
2022/10/12 06:48:09;;;;;;;;;;;;;;;12.21;66.98;101257.10;1496624;87;20282;-88
2022/10/12 06:50:36;;;;;;;;;;;;;;;12.28;67.67;101262.19;1490129;87;20899;-88
2022/10/12 06:53:03;;;;;;;;;;;;;;;12.26;67.28;101253.55;1495365;87;20275;-89
2022/10/12 06:55:30;;;;;;;;;;;;;;;12.31;66.88;101256.11;1494181;87;20244;-88
2022/10/12 06:57:57;;;;;;;;;;;;;;;12.32;66.49;101267.59;1488893;87;20341;-81
2022/10/12 07:00:24;;;;;;;;;;;;;;;12.37;65.92;101258.70;1488252;87;21064;-89
2022/10/12 07:02:51;;;;;;;;;;;;;;;12.38;66.42;101268.36;1492502;87;20274;-89
2022/10/12 07:05:19;;;;;;;;;;;;;;;12.45;66.06;101265.98;1476518;87;20282;-89
2022/10/12 07:07:47;;;;;;;;;;;;;;;12.51;65.82;101260.94;1500021;87;20410;-89
2022/10/12 07:10:14;;;;;;;;;;;;;;;12.52;66.19;101262.64;1495222;87;20282;-89
2022/10/12 07:12:41;;;;;;;;;;;;;;;12.59;66.35;101263.73;1502880;87;20386;-89
2022/10/12 07:15:08;;;;;;;;;;;;;;;12.57;65.16;101264.86;1493062;87;20319;-87
2022/10/12 07:17:35;;;;;;;;;;;;;;;12.59;65.39;101265.06;1498194;87;20425;-89
2022/10/12 07:20:02;;;;;;;;;;;;;;;12.57;64.46;101261.73;1491706;87;20326;-89
2022/10/12 07:22:29;;;;;;;;;;;;;;;12.62;64.14;101263.45;1492055;87;20422;-87
2022/10/12 07:24:56;;;;;;;;;;;;;;;12.62;63.87;101263.45;1498488;86;20427;-90
2022/10/12 07:27:23;;;;;;;;;;;;;;;12.60;63.97;101258.80;1512678;86;20309;-86
2022/10/12 07:29:50;;;;;;;;;;;;;;;12.68;63.82;101262.55;1513719;86;20338;-88
2022/10/12 07:32:17;;;;;;;;;;;;;;;12.72;63.78;101269.28;1512244;86;20338;-87
2022/10/12 07:34:44;;;;;;;;;;;;;;;12.75;64.33;101268.99;1512666;86;20391;-87
2022/10/12 07:37:11;;;;;;;;;;;;;;;12.84;64.77;101269.47;1513176;86;20294;-86
2022/10/12 07:39:40;;;;;;;;;;;;;;;12.88;63.96;101269.52;1509413;86;20287;-88
2022/10/12 07:42:07;;;;;;;;;;;;;;;12.76;62.08;101267.51;1513880;86;20394;-79
2022/10/12 07:44:34;;;;;;;;;;;;;;;12.89;63.77;101265.91;1492907;86;20785;-80
2022/10/12 07:47:01;;;;;;;;;;;;;;;12.84;62.65;101263.66;1512863;86;20266;-79
2022/10/12 07:49:28;;;;;;;;;;;;;;;12.87;62.92;101262.05;1510382;86;20347;-80
2022/10/12 07:51:55;;;;;;;;;;;;;;;12.86;62.70;101258.22;1510262;86;20897;-80
2022/10/12 07:54:22;;;;;;;;;;;;;;;12.91;63.12;101255.12;1513580;86;20316;-79
2022/10/12 07:56:49;;;;;;;;;;;;;;;12.99;63.30;101259.23;1522171;86;20280;-79
2022/10/12 07:59:15;;;;;;;;;;;;;;;13.01;62.54;101256.78;1520068;86;20338;-79
2022/10/12 08:01:42;;;;;;;;;;;;;;;13.12;62.67;101256.25;1524060;86;20353;-80
2022/10/12 08:04:09;;;;;;;;;;;;;;;13.13;61.81;101251.30;1513228;86;20265;-82
2022/10/12 08:06:36;;;;;;;;;;;;;;;13.10;60.95;101255.91;1518290;86;20301;-83
2022/10/12 08:09:03;;;;;;;;;;;;;;;13.21;61.70;101260.23;1509136;86;20221;-85
2022/10/12 08:11:30;;;;;;;;;;;;;;;13.25;61.70;101260.77;1500278;86;20316;-83
2022/10/12 08:13:57;;;;;;;;;;;;;;;13.27;60.73;101258.34;1515966;86;20287;-84
2022/10/12 08:16:24;;;;;;;;;;;;;;;13.23;60.37;101260.06;1517162;86;20280;-85
2022/10/12 08:18:50;;;;;;;;;;;;;;;13.27;60.44;101253.53;1509721;86;20809;-84
2022/10/12 08:21:17;;;;;;;;;;;;;;;13.15;59.58;101257.29;1491312;86;20417;-84
2022/10/12 08:23:45;;;;;;;;;;;;;;;13.33;60.24;101254.77;1511065;86;20302;-85
2022/10/12 08:26:13;;;;;;;;;;;;;;;13.38;60.70;101260.00;1509722;86;20823;-84
2022/10/12 08:28:40;;;;;;;;;;;;;;;13.32;59.41;101267.20;1511818;86;20294;-85
2022/10/12 08:31:12;;;;;;;;;;;;;;;13.36;59.96;101265.95;1495069;86;20845;-85
2022/10/12 08:33:39;;;;;;;;;;;;;;;13.36;59.20;101269.94;1512638;86;20455;-83
2022/10/12 08:36:07;;;;;;;;;;;;;;;13.39;59.67;101265.66;1517817;86;20332;-85
2022/10/12 08:38:37;;;;;;;;;;;;;;;13.43;59.54;101264.36;1515155;85;20321;-85
2022/10/12 08:41:32;;;;;;;;;;;;;;;13.43;59.33;101264.36;1515791;86;20815;-85
2022/10/12 08:44:24;;;;;;;;;;;;;;;13.46;59.44;101259.25;1511918;86;20236;-85
2022/10/12 08:46:59;;;;;;;;;;;;;;;13.50;59.41;101255.33;1518973;86;20287;-84
2022/10/12 08:49:28;;;;;;;;;;;;;;;13.57;59.73;101260.89;1516087;86;20236;-84
2022/10/12 08:51:57;;;;;;;;;;;;;;;13.65;59.35;101262.33;1510521;86;20513;-84
2022/10/12 08:54:31;;;;;;;;;;;;;;;13.80;60.70;101262.17;1513542;86;20229;-83
2022/10/12 08:56:58;;;;;;;;;;;;;;;13.76;60.64;101263.47;1507756;86;20464;-85
2022/10/12 08:59:26;;;;;;;;;;;;;;;13.91;60.21;101260.64;1518838;86;20288;-84
2022/10/12 09:02:14;;;;;;;;;;;;;;;13.90;59.82;101260.31;1494015;86;20302;-85
2022/10/12 09:05:02;;;;;;;;;;;;;;;14.02;59.98;101253.45;1513164;86;20877;-85
2022/10/12 09:07:38;;;;;;;;;;;;;;;14.09;60.30;101251.85;1511417;86;20279;-86
2022/10/12 09:10:11;;;;;;;;;;;;;;;14.20;60.59;101250.30;1508544;86;20220;-85
2022/10/12 09:12:57;;;;;;;;;;;;;;;14.30;60.37;101256.87;1514523;86;20420;-85
2022/10/12 09:15:27;;;;;;;;;;;;;;;14.36;60.16;101253.14;1510951;86;20392;-82
2022/10/12 09:17:56;;;;;;;;;;;;;;;14.39;59.80;101255.99;1515255;86;20424;-84
2022/10/12 09:20:34;;;;;;;;;;;;;;;14.46;59.81;101249.05;1523393;86;20279;-84
2022/10/12 09:23:16;;;;;;;;;;;;;;;14.59;59.33;101248.71;1510465;86;20338;-82
2022/10/12 09:25:45;;;;;;;;;;;;;;;14.68;59.71;101251.78;1504823;86;20316;-85
2022/10/12 09:28:20;;;;;;;;;;;;;;;14.80;59.08;101249.20;1511548;86;20376;-83
2022/10/12 09:30:51;;;;;;;;;;;;;;;14.86;59.75;101255.23;1505787;86;20334;-85
2022/10/12 09:33:25;;;;;;;;;;;;;;;14.95;58.46;101251.30;1515298;86;20895;-85
2022/10/12 09:35:51;;;;;;;;;;;;;;;15.00;58.03;101251.67;1517696;86;20956;-85
2022/10/12 09:38:20;;;;;;;;;;;;;;;15.10;58.29;101257.72;1511138;86;20338;-85
2022/10/12 09:40:47;;;;;;;;;;;;;;;15.19;58.08;101260.81;1513998;86;20346;-85
2022/10/12 09:43:14;;;;;;;;;;;;;;;15.19;57.94;101258.14;1510777;86;20309;-85
2022/10/12 09:45:41;;;;;;;;;;;;;;;15.29;57.48;101257.52;1512045;86;20302;-85
2022/10/12 09:48:15;;;;;;;;;;;;;;;15.27;55.54;101259.50;1514535;86;20401;-84
2022/10/12 09:51:00;;;;;;;;;;;;;;;15.33;55.22;101259.36;1512409;86;20354;-79
2022/10/12 09:53:39;;;;;;;;;;;;;;;15.48;57.90;101260.97;1518398;86;20376;-79
2022/10/12 09:56:33;;;;;;;;;;;;;;;15.60;56.85;101257.02;1506027;86;20399;-79
2022/10/12 09:59:02;;;;;;;;;;;;;;;15.71;56.45;101258.09;1507281;86;20288;-79
2022/10/12 10:01:32;;;;;;;;;;;;;;;15.82;57.22;101254.78;1504331;86;20376;-79
2022/10/12 10:04:17;;;;;;;;;;;;;;;15.92;55.90;101255.49;1515173;86;20347;-79
2022/10/12 10:06:45;;;;;;;;;;;;;;;16.03;56.78;101247.19;1518377;86;20354;-80
2022/10/12 10:09:33;;;;;;;;;;;;;;;16.13;56.28;101246.52;1517507;86;20295;-77
2022/10/12 10:12:21;;;;;;;;;;;;;;;16.13;55.30;101245.19;1518597;86;20323;-79
2022/10/12 10:14:52;;;;;;;;;;;;;;;16.14;55.42;101246.87;1525101;86;20778;-79
2022/10/12 10:17:25;;;;;;;;;;;;;;;16.24;55.24;101254.22;1520034;86;20779;-78
2022/10/12 10:19:54;;;;;;;;;;;;;;;16.31;54.54;101261.06;1517444;86;20487;-79
2022/10/12 10:22:23;;;;;;;;;;;;;;;16.27;52.35;101253.56;1518257;86;20444;-79
2022/10/12 10:24:55;;;;;;;;;;;;;;;16.15;52.26;101257.88;1512897;86;20228;-80
2022/10/12 10:27:37;;;;;;;;;;;;;;;16.16;51.86;101258.20;1523633;86;20286;-80
2022/10/12 10:30:20;;;;;;;;;;;;;;;16.15;52.80;101261.89;1506672;86;20500;-79
2022/10/12 10:32:48;;;;;;;;;;;;;;;16.11;51.92;101255.22;1516932;86;20294;-79
2022/10/12 10:35:20;;;;;;;;;;;;;;;16.03;51.53;101252.52;1516722;86;20757;-80
2022/10/12 10:37:50;;;;;;;;;;;;;;;16.12;52.77;101251.53;1513277;86;20436;-79
2022/10/12 10:40:23;;;;;;;;;;;;;;;16.27;54.25;101250.39;1519024;86;20391;-79
2022/10/12 10:42:53;;;;;;;;;;;;;;;16.38;53.44;101245.23;1521747;86;20838;-79
2022/10/12 10:45:26;;;;;;;;;;;;;;;16.33;51.92;101244.89;1511955;86;20331;-79
2022/10/12 10:48:00;;;;;;;;;;;;;;;16.32;52.48;101243.23;1508368;86;20316;-78
2022/10/12 10:50:37;;;;;;;;;;;;;;;16.39;52.66;101244.22;1511263;86;20221;-87
2022/10/12 10:53:07;;;;;;;;;;;;;;;16.45;52.76;101241.71;1510728;86;20272;-84
2022/10/12 10:55:54;;;;;;;;;;;;;;;16.51;53.36;101234.87;1506216;86;20809;-85
2022/10/12 10:58:27;;;;;;;;;;;;;;;16.52;52.41;101237.89;1511040;86;20955;-84
2022/10/12 11:00:58;;;;;;;;;;;;;;;16.52;52.90;101232.55;1506576;86;20340;-84
2022/10/12 11:03:31;;;;;;;;;;;;;;;16.50;52.33;101234.55;1510668;86;20413;-85
2022/10/12 11:06:04;;;;;;;;;;;;;;;16.56;52.43;101234.38;1511390;86;20346;-85
2022/10/12 11:08:33;;;;;;;;;;;;;;;16.55;53.23;101230.88;1504914;86;20245;-84
2022/10/12 11:11:03;;;;;;;;;;;;;;;16.58;52.66;101229.20;1497033;86;20852;-85
2022/10/12 11:13:37;;;;;;;;;;;;;;;16.55;52.73;101230.05;1514045;86;20309;-84
2022/10/12 11:16:13;;;;;;;;;;;;;;;16.60;53.09;101228.55;1506286;86;20332;-85
2022/10/12 11:18:43;;;;;;;;;;;;;;;16.61;53.67;101230.20;1511292;86;20287;-85
2022/10/12 11:21:26;;;;;;;;;;;;;;;16.67;54.16;101231.38;1510336;86;20742;-84
2022/10/12 11:23:56;;;;;;;;;;;;;;;16.71;54.90;101228.69;1515507;86;20243;-83
2022/10/12 11:26:42;;;;;;;;;;;;;;;16.75;54.99;101230.55;1511864;86;20258;-84
2022/10/12 11:29:11;;;;;;;;;;;;;;;16.62;51.09;101226.52;1516316;86;20301;-85
2022/10/12 11:31:41;;;;;;;;;;;;;;;16.55;50.60;101220.19;1494939;86;20302;-84
2022/10/12 11:34:10;;;;;;;;;;;;;;;16.52;51.13;101224.53;1512662;86;20310;-84
2022/10/12 11:36:39;;;;;;;;;;;;;;;16.46;50.79;101225.20;1511460;86;20554;-84
2022/10/12 11:39:28;;;;;;;;;;;;;;;16.40;51.18;101222.70;1519225;86;20963;-85
2022/10/12 11:41:56;;;;;;;;;;;;;;;16.42;51.80;101221.18;1515675;86;20387;-85
2022/10/12 11:44:43;;;;;;;;;;;;;;;16.39;51.08;101218.84;1509621;86;20405;-84
2022/10/12 11:47:37;;;;;;;;;;;;;;;16.39;51.08;101217.51;1512915;86;20346;-85
2022/10/12 11:50:26;;;;;;;;;;;;;;;16.42;52.42;101213.99;1511816;86;20787;-84
2022/10/12 11:52:55;;;;;;;;;;;;;;;16.48;53.04;101215.16;1510359;86;20891;-85
2022/10/12 11:55:52;;;;;;;;;;;;;;;16.48;51.40;101207.15;1519668;86;20377;-84
2022/10/12 11:58:25;;;;;;;;;;;;;;;16.55;53.46;101206.83;1512679;86;20897;-85
2022/10/12 12:01:13;;;;;;;;;;;;;;;16.63;54.72;101207.30;1509234;86;20309;-85
2022/10/12 12:03:47;;;;;;;;;;;;;;;16.66;54.91;101207.83;1513914;86;20310;-84
2022/10/12 12:06:32;;;;;;;;;;;;;;;16.71;53.88;101205.97;1515363;86;20861;-85
2022/10/12 12:09:06;;;;;;;;;;;;;;;16.73;53.80;101209.82;1518968;86;20764;-84
2022/10/12 12:11:33;;;;;;;;;;;;;;;16.76;53.58;101202.80;1514239;86;20228;-84
2022/10/12 12:14:27;;;;;;;;;;;;;;;16.78;54.35;101204.34;1516881;86;20865;-85
2022/10/12 12:17:14;;;;;;;;;;;;;;;16.80;53.91;101199.66;1518646;86;20346;-85
2022/10/12 12:19:42;;;;;;;;;;;;;;;16.84;54.27;101202.83;1514591;86;20838;-84
2022/10/12 12:22:28;;;;;;;;;;;;;;;16.87;54.66;101197.97;1519197;86;21138;-85
2022/10/12 12:25:04;;;;;;;;;;;;;;;16.93;54.65;101188.94;1518048;86;20236;-84
2022/10/12 12:27:50;;;;;;;;;;;;;;;16.94;54.90;101191.42;1507512;86;20713;-84
2022/10/12 12:30:21;;;;;;;;;;;;;;;16.93;54.91;101193.78;1508775;86;20413;-85
2022/10/12 12:33:02;;;;;;;;;;;;;;;16.95;54.84;101194.45;1513634;86;20361;-84
2022/10/12 12:35:33;;;;;;;;;;;;;;;17.00;54.79;101192.07;1519581;86;20339;-84
2022/10/12 12:38:34;;;;;;;;;;;;;;;17.03;54.29;101198.45;1515520;86;20302;-85
2022/10/12 12:41:13;;;;;;;;;;;;;;;17.06;54.35;101188.74;1512573;86;20420;-84
2022/10/12 12:43:55;;;;;;;;;;;;;;;17.11;54.12;101187.70;1510601;86;20279;-84
2022/10/12 12:46:24;;;;;;;;;;;;;;;17.12;53.92;101188.05;1514442;86;20309;-85
2022/10/12 12:48:55;;;;;;;;;;;;;;;17.10;53.98;101188.72;1514330;86;20302;-85
2022/10/12 12:51:37;;;;;;;;;;;;;;;17.09;54.24;101184.38;1507033;86;20310;-84
2022/10/12 12:54:13;;;;;;;;;;;;;;;17.07;53.44;101186.89;1512715;86;20409;-84
2022/10/12 12:56:50;;;;;;;;;;;;;;;17.02;54.08;101190.07;1512074;86;20302;-84